Flight Track Log - Related Links

Times and Time Zones

All times are in EDT time to prevent confusion due to time zone crossing. See the CTL16 flight status page for this flight to view local times or setup timezone preferences in your user account.

Time Position Orientation Groundspeed Altitude Reporting Facility
EDT Latitude Longitude Course Direction KTS MPH feet Rate Location/Type
Wed 08:35:41 PM 39.3833 -84.4667 44° Northeast 153 176 1,600  Level Cincinnati TRACON
Wed 08:36:12 PM 39.3981 -84.4483 44° Northeast 165 190 2,100 652 Climbing Indianapolis Center
Wed 08:37:13 PM 39.4300 -84.3997 50° Northeast 158 182 2,600 590 Climbing Indianapolis Center
Wed 08:38:14 PM 39.4619 -84.3500 50° Northeast 174 200 3,300 639 Climbing Indianapolis Center
Wed 08:39:15 PM 39.4953 -84.3019 48° Northeast 177 204 3,900 738 Climbing Indianapolis Center
Wed 08:40:16 PM 39.5317 -84.2517 47° Northeast 182 209 4,800 614 Climbing Indianapolis Center
Wed 08:41:22 PM 39.5728 -84.2011 43° Northeast 188 216 5,200 143 Climbing Indianapolis Center
Wed 08:42:22 PM 39.6125 -84.1494 45° Northeast 197 227 5,100 -102 Descending Indianapolis Center
Wed 08:43:20 PM 39.6469 -84.1047 45° Northeast 195 224 5,000 -50 Descending Indianapolis Center
Wed 08:44:21 PM 39.6831 -84.0536 47° Northeast 193 222 5,000 51 Level Indianapolis Center
Wed 08:45:18 PM 39.7203 -84.0036 46° Northeast 191 220 5,100 51 Climbing Indianapolis Center
Wed 08:46:19 PM 39.7594 -83.9569 42° Northeast 191 220 5,100  Level Indianapolis Center
Wed 08:47:20 PM 39.7969 -83.9075 45° Northeast 190 219 5,100 50 Level Indianapolis Center
Wed 08:48:20 PM 39.8339 -83.8606 44° Northeast 190 219 5,200 -47 Climbing Indianapolis Center
Wed 08:49:27 PM 39.8733 -83.8094 45° Northeast 190 219 5,000 -47 Descending Indianapolis Center
Wed 08:50:28 PM 39.9172 -83.7569 43° Northeast 192 221 5,100 50 Climbing Indianapolis Center
Wed 08:51:28 PM 39.9564 -83.7075 44° Northeast 191 220 5,100 50 Level Indianapolis Center
Wed 08:52:29 PM 39.9958 -83.6581 44° Northeast 194 223 5,200  Climbing Indianapolis Center
Wed 08:53:29 PM 40.0331 -83.6081 46° Northeast 194 223 5,100 -50 Descending Indianapolis Center
Wed 08:54:30 PM 40.0725 -83.5558 45° Northeast 193 222 5,100 -48 Level Indianapolis Center
Wed 08:55:35 PM 40.1053 -83.5097 47° Northeast 193 222 5,000 -48 Descending Indianapolis Center
Wed 08:56:36 PM 40.1428 -83.4614 45° Northeast 190 219 5,000 47 Level Indianapolis Center
Wed 08:57:44 PM 40.1903 -83.4011 44° Northeast 187 215 5,100 49 Climbing Indianapolis Center
Wed 08:58:38 PM 40.2172 -83.3642 46° Northeast 186 214 5,100  Level Indianapolis Center
Wed 08:59:39 PM 40.2619 -83.3086 43° Northeast 187 215 5,100 -49 Level Indianapolis Center
Wed 09:00:40 PM 40.3078 -83.2800 25° Northeast 182 209 5,000 -49 Descending Indianapolis Center
Wed 09:01:41 PM 40.3517 -83.2533 25° Northeast 177 204 5,000  Level Indianapolis Center
Wed 09:02:43 PM 40.3939 -83.2233 28° Northeast 173 199 5,000  Level Indianapolis Center
Wed 09:03:44 PM 40.4322 -83.1872 36° Northeast 168 193 5,000 49 Level Indianapolis Center
Wed 09:04:45 PM 40.4686 -83.1503 38° Northeast 165 190 5,100 49 Climbing Indianapolis Center
Wed 09:05:46 PM 40.5069 -83.1172 33° Northeast 163 188 5,100  Level Indianapolis Center
Wed 09:06:47 PM 40.5397 -83.0828 39° Northeast 163 188 5,100  Level Indianapolis Center
Wed 09:07:48 PM 40.5758 -83.0433 40° Northeast 166 191 5,100  Level Indianapolis Center
Wed 09:08:49 PM 40.6125 -83.0039 39° Northeast 167 192 5,100  Level Indianapolis Center
Wed 09:09:50 PM 40.6494 -82.9639 39° Northeast 170 196 5,100  Level Indianapolis Center
Wed 09:10:51 PM 40.6853 -82.9231 41° Northeast 168 193 5,100  Level Indianapolis Center
Wed 09:11:52 PM 40.7203 -82.8844 40° Northeast 164 189 5,100 49 Level Indianapolis Center
Wed 09:12:53 PM 40.7606 -82.8392 40° Northeast 162 186 5,200  Climbing Indianapolis Center
Wed 09:13:54 PM 40.7969 -82.7997 39° Northeast 167 192 5,100 -49 Descending Indianapolis Center
Wed 09:14:55 PM 40.8350 -82.7519 44° Northeast 183 211 5,100  Level Indianapolis Center
Wed 09:16:54 PM 40.9069 -82.6739 39° Northeast 170 196 5,100  Level Cleveland Center

Login

Don't have an account? Register now (free) for customized features, flight alerts, and more!